sensor_id;sensor_type;location;lat;lon;timestamp;P1;durP1;ratioP1;P2;durP2;ratioP2
64242;SDS011;50573;51.512;5.386;2023-02-28T00:00:11;16.92;;;11.75;;
64242;SDS011;50573;51.512;5.386;2023-02-28T00:20:23;20.00;;;10.75;;
64242;SDS011;50573;51.512;5.386;2023-02-28T00:30:26;15.30;;;9.85;;
64242;SDS011;50573;51.512;5.386;2023-02-28T00:40:31;17.60;;;10.02;;
64242;SDS011;50573;51.512;5.386;2023-02-28T00:50:34;19.85;;;9.57;;
64242;SDS011;50573;51.512;5.386;2023-02-28T01:00:38;18.33;;;10.00;;
64242;SDS011;50573;51.512;5.386;2023-02-28T01:10:41;18.98;;;9.52;;
64242;SDS011;50573;51.512;5.386;2023-02-28T01:20:46;18.77;;;9.70;;
64242;SDS011;50573;51.512;5.386;2023-02-28T01:30:50;18.10;;;10.15;;
64242;SDS011;50573;51.512;5.386;2023-02-28T01:40:55;17.80;;;9.23;;
64242;SDS011;50573;51.512;5.386;2023-02-28T01:50:59;19.55;;;10.45;;
64242;SDS011;50573;51.512;5.386;2023-02-28T02:01:06;17.30;;;10.68;;
64242;SDS011;50573;51.512;5.386;2023-02-28T02:11:09;16.55;;;9.82;;
64242;SDS011;50573;51.512;5.386;2023-02-28T02:21:29;16.13;;;11.13;;
64242;SDS011;50573;51.512;5.386;2023-02-28T02:32:01;19.70;;;10.30;;
64242;SDS011;50573;51.512;5.386;2023-02-28T02:42:23;17.23;;;10.30;;
64242;SDS011;50573;51.512;5.386;2023-02-28T02:52:32;15.57;;;10.57;;
64242;SDS011;50573;51.512;5.386;2023-02-28T03:02:41;13.75;;;10.05;;
64242;SDS011;50573;51.512;5.386;2023-02-28T03:12:49;22.30;;;10.95;;
64242;SDS011;50573;51.512;5.386;2023-02-28T03:23:05;17.50;;;9.20;;
64242;SDS011;50573;51.512;5.386;2023-02-28T03:33:17;16.30;;;9.18;;
64242;SDS011;50573;51.512;5.386;2023-02-28T03:43:26;15.80;;;10.10;;
64242;SDS011;50573;51.512;5.386;2023-02-28T03:53:32;17.48;;;8.93;;
64242;SDS011;50573;51.512;5.386;2023-02-28T04:03:39;14.63;;;9.23;;
64242;SDS011;50573;51.512;5.386;2023-02-28T04:13:42;15.82;;;8.40;;
64242;SDS011;50573;51.512;5.386;2023-02-28T04:23:49;14.10;;;8.30;;
64242;SDS011;50573;51.512;5.386;2023-02-28T04:33:52;13.93;;;9.00;;
64242;SDS011;50573;51.512;5.386;2023-02-28T04:43:56;14.63;;;8.02;;
64242;SDS011;50573;51.512;5.386;2023-02-28T04:53:59;18.42;;;8.75;;
64242;SDS011;50573;51.512;5.386;2023-02-28T05:04:04;17.35;;;7.70;;
64242;SDS011;50573;51.512;5.386;2023-02-28T05:14:09;13.75;;;7.75;;
64242;SDS011;50573;51.512;5.386;2023-02-28T05:24:16;12.80;;;6.70;;
64242;SDS011;50573;51.512;5.386;2023-02-28T05:34:24;14.90;;;7.35;;
64242;SDS011;50573;51.512;5.386;2023-02-28T05:44:28;12.07;;;7.20;;
64242;SDS011;50573;51.512;5.386;2023-02-28T05:54:31;14.23;;;6.32;;
64242;SDS011;50573;51.512;5.386;2023-02-28T06:04:36;9.52;;;7.13;;
64242;SDS011;50573;51.512;5.386;2023-02-28T06:14:39;13.47;;;7.20;;
64242;SDS011;50573;51.512;5.386;2023-02-28T06:24:43;12.13;;;7.15;;
64242;SDS011;50573;51.512;5.386;2023-02-28T06:34:46;18.85;;;8.25;;
64242;SDS011;50573;51.512;5.386;2023-02-28T06:44:51;11.05;;;6.80;;
64242;SDS011;50573;51.512;5.386;2023-02-28T06:54:54;12.20;;;7.25;;
64242;SDS011;50573;51.512;5.386;2023-02-28T07:05:04;10.60;;;7.43;;
64242;SDS011;50573;51.512;5.386;2023-02-28T07:15:08;15.02;;;7.75;;
64242;SDS011;50573;51.512;5.386;2023-02-28T07:25:13;13.93;;;7.77;;
64242;SDS011;50573;51.512;5.386;2023-02-28T07:45:22;11.15;;;7.63;;
64242;SDS011;50573;51.512;5.386;2023-02-28T07:55:25;12.50;;;6.40;;
64242;SDS011;50573;51.512;5.386;2023-02-28T08:05:30;15.93;;;6.95;;
64242;SDS011;50573;51.512;5.386;2023-02-28T08:15:33;9.60;;;4.90;;
64242;SDS011;50573;51.512;5.386;2023-02-28T08:25:38;6.50;;;3.10;;
64242;SDS011;50573;51.512;5.386;2023-02-28T08:45:46;4.00;;;2.70;;
64242;SDS011;50573;51.512;5.386;2023-02-28T08:55:55;5.30;;;2.90;;
64242;SDS011;50573;51.512;5.386;2023-02-28T09:06:00;3.95;;;2.50;;
64242;SDS011;50573;51.512;5.386;2023-02-28T09:16:04;3.17;;;2.45;;
64242;SDS011;50573;51.512;5.386;2023-02-28T09:26:14;4.90;;;2.20;;
64242;SDS011;50573;51.512;5.386;2023-02-28T09:36:18;3.67;;;2.20;;
64242;SDS011;50573;51.512;5.386;2023-02-28T09:46:32;11.70;;;2.45;;
64242;SDS011;50573;51.512;5.386;2023-02-28T09:56:39;6.45;;;1.98;;
64242;SDS011;50573;51.512;5.386;2023-02-28T10:06:46;2.78;;;1.60;;
64242;SDS011;50573;51.512;5.386;2023-02-28T10:16:53;6.35;;;2.00;;
64242;SDS011;50573;51.512;5.386;2023-02-28T10:27:01;3.63;;;1.83;;
64242;SDS011;50573;51.512;5.386;2023-02-28T10:37:14;4.05;;;1.75;;
64242;SDS011;50573;51.512;5.386;2023-02-28T10:47:18;9.63;;;2.00;;
64242;SDS011;50573;51.512;5.386;2023-02-28T10:57:23;4.35;;;2.45;;
64242;SDS011;50573;51.512;5.386;2023-02-28T11:07:28;4.85;;;2.33;;
64242;SDS011;50573;51.512;5.386;2023-02-28T11:17:54;6.43;;;2.17;;
64242;SDS011;50573;51.512;5.386;2023-02-28T11:28:01;3.45;;;2.00;;
64242;SDS011;50573;51.512;5.386;2023-02-28T11:38:08;4.88;;;2.10;;
64242;SDS011;50573;51.512;5.386;2023-02-28T11:48:18;3.80;;;2.28;;
64242;SDS011;50573;51.512;5.386;2023-02-28T11:58:30;2.70;;;1.83;;
64242;SDS011;50573;51.512;5.386;2023-02-28T12:08:51;4.43;;;2.40;;
64242;SDS011;50573;51.512;5.386;2023-02-28T12:19:06;2.90;;;2.00;;
64242;SDS011;50573;51.512;5.386;2023-02-28T12:39:26;3.03;;;2.13;;
64242;SDS011;50573;51.512;5.386;2023-02-28T12:49:41;3.55;;;2.67;;
64242;SDS011;50573;51.512;5.386;2023-02-28T12:59:50;5.25;;;2.50;;
64242;SDS011;50573;51.512;5.386;2023-02-28T13:09:59;3.78;;;2.78;;
64242;SDS011;50573;51.512;5.386;2023-02-28T13:20:13;3.13;;;2.33;;
64242;SDS011;50573;51.512;5.386;2023-02-28T13:51:43;4.85;;;2.60;;
64242;SDS011;50573;51.512;5.386;2023-02-28T14:02:01;3.35;;;2.42;;
64242;SDS011;50573;51.512;5.386;2023-02-28T14:23:02;4.85;;;2.92;;
64242;SDS011;50573;51.512;5.386;2023-02-28T14:33:16;3.20;;;2.75;;
64242;SDS011;50573;51.512;5.386;2023-02-28T14:43:25;4.10;;;2.67;;
64242;SDS011;50573;51.512;5.386;2023-02-28T14:53:35;3.50;;;2.90;;
64242;SDS011;50573;51.512;5.386;2023-02-28T15:03:39;6.43;;;3.10;;
64242;SDS011;50573;51.512;5.386;2023-02-28T15:13:48;3.83;;;2.83;;
64242;SDS011;50573;51.512;5.386;2023-02-28T15:23:53;4.72;;;3.08;;
64242;SDS011;50573;51.512;5.386;2023-02-28T15:34:04;6.68;;;3.30;;
64242;SDS011;50573;51.512;5.386;2023-02-28T15:44:25;4.82;;;2.78;;
64242;SDS011;50573;51.512;5.386;2023-02-28T15:54:33;4.45;;;2.80;;
64242;SDS011;50573;51.512;5.386;2023-02-28T16:04:53;6.53;;;3.38;;
64242;SDS011;50573;51.512;5.386;2023-02-28T16:15:02;9.13;;;3.95;;
64242;SDS011;50573;51.512;5.386;2023-02-28T16:25:12;6.32;;;3.78;;
64242;SDS011;50573;51.512;5.386;2023-02-28T16:35:17;8.23;;;4.60;;
64242;SDS011;50573;51.512;5.386;2023-02-28T16:45:22;8.00;;;3.97;;
64242;SDS011;50573;51.512;5.386;2023-02-28T16:55:28;6.20;;;3.53;;
64242;SDS011;50573;51.512;5.386;2023-02-28T17:05:33;5.50;;;3.97;;
64242;SDS011;50573;51.512;5.386;2023-02-28T17:15:41;6.63;;;4.07;;
64242;SDS011;50573;51.512;5.386;2023-02-28T17:25:49;9.73;;;5.10;;
64242;SDS011;50573;51.512;5.386;2023-02-28T17:35:59;15.43;;;9.40;;
64242;SDS011;50573;51.512;5.386;2023-02-28T17:46:03;19.87;;;10.10;;
64242;SDS011;50573;51.512;5.386;2023-02-28T17:56:11;35.20;;;14.43;;
64242;SDS011;50573;51.512;5.386;2023-02-28T18:06:16;12.77;;;7.65;;
64242;SDS011;50573;51.512;5.386;2023-02-28T18:16:24;9.30;;;6.13;;
64242;SDS011;50573;51.512;5.386;2023-02-28T18:26:28;10.05;;;6.05;;
64242;SDS011;50573;51.512;5.386;2023-02-28T18:36:33;8.45;;;5.50;;
64242;SDS011;50573;51.512;5.386;2023-02-28T18:46:36;11.40;;;6.57;;
64242;SDS011;50573;51.512;5.386;2023-02-28T18:56:41;11.02;;;7.13;;
64242;SDS011;50573;51.512;5.386;2023-02-28T19:16:49;15.43;;;8.73;;
64242;SDS011;50573;51.512;5.386;2023-02-28T19:36:56;12.88;;;7.85;;
64242;SDS011;50573;51.512;5.386;2023-02-28T19:47:00;25.23;;;12.93;;
64242;SDS011;50573;51.512;5.386;2023-02-28T19:57:04;20.35;;;9.93;;
64242;SDS011;50573;51.512;5.386;2023-02-28T20:07:08;21.27;;;11.52;;
64242;SDS011;50573;51.512;5.386;2023-02-28T20:17:12;14.00;;;9.45;;
64242;SDS011;50573;51.512;5.386;2023-02-28T20:27:15;21.38;;;11.02;;
64242;SDS011;50573;51.512;5.386;2023-02-28T20:37:20;14.48;;;9.13;;
64242;SDS011;50573;51.512;5.386;2023-02-28T20:47:23;12.93;;;9.00;;
64242;SDS011;50573;51.512;5.386;2023-02-28T20:57:28;15.30;;;9.48;;
64242;SDS011;50573;51.512;5.386;2023-02-28T21:07:32;16.05;;;10.20;;
64242;SDS011;50573;51.512;5.386;2023-02-28T21:17:36;21.65;;;11.13;;
64242;SDS011;50573;51.512;5.386;2023-02-28T21:27:39;17.23;;;10.27;;
64242;SDS011;50573;51.512;5.386;2023-02-28T21:37:44;19.00;;;11.75;;
64242;SDS011;50573;51.512;5.386;2023-02-28T21:47:47;22.33;;;11.68;;
64242;SDS011;50573;51.512;5.386;2023-02-28T21:57:52;15.93;;;10.02;;
64242;SDS011;50573;51.512;5.386;2023-02-28T22:07:55;13.02;;;8.27;;
64242;SDS011;50573;51.512;5.386;2023-02-28T22:17:59;19.27;;;10.10;;
64242;SDS011;50573;51.512;5.386;2023-02-28T22:28:03;11.45;;;8.02;;
64242;SDS011;50573;51.512;5.386;2023-02-28T22:38:07;12.93;;;8.93;;
64242;SDS011;50573;51.512;5.386;2023-02-28T22:48:11;13.27;;;8.77;;
64242;SDS011;50573;51.512;5.386;2023-02-28T22:58:16;14.80;;;9.30;;
64242;SDS011;50573;51.512;5.386;2023-02-28T23:08:19;12.18;;;8.20;;
64242;SDS011;50573;51.512;5.386;2023-02-28T23:18:25;9.90;;;6.17;;
64242;SDS011;50573;51.512;5.386;2023-02-28T23:28:28;14.75;;;9.02;;
64242;SDS011;50573;51.512;5.386;2023-02-28T23:38:33;16.55;;;8.57;;
64242;SDS011;50573;51.512;5.386;2023-02-28T23:48:36;14.52;;;8.73;;
64242;SDS011;50573;51.512;5.386;2023-02-28T23:58:41;15.50;;;9.13;;
